N171PC KGRR-KDTW
Flight info
| Callsign | N171PC |
|---|---|
| Flight time | 0h 31m |
| Altitude | 15000 |
| Route | ENGRM RKCTY2 |
| Aircraft | C750/M-VGDW/C |
Departure
| Time | 2026-05-05 01:12 |
|---|---|
| Airport | Gerald R. Ford International Airport (KGRR) |
Arrival
| Time | 2026-05-05 01:43 |
|---|---|
| Airport | Detroit Metropolitan Wayne County Airport (KDTW) |
| Time | Latitude | Longitude | Altitude | Speed | Heading |
|---|---|---|---|---|---|
| 2026-05-05 01:04 | 42.88075 | -85.53461 | 796 ft | 0 kts | 91° |
| 2026-05-05 01:07 | 42.88072 | -85.53448 | 796 ft | 2 kts | 118° |
| 2026-05-05 01:07 | 42.88034 | -85.53393 | 795 ft | 15 kts | 136° |
| 2026-05-05 01:07 | 42.87946 | -85.53303 | 796 ft | 15 kts | 101° |
| 2026-05-05 01:08 | 42.87963 | -85.53168 | 797 ft | 18 kts | 82° |
| 2026-05-05 01:08 | 42.87984 | -85.52984 | 796 ft | 19 kts | 81° |
| 2026-05-05 01:08 | 42.88000 | -85.52819 | 799 ft | 16 kts | 83° |
| 2026-05-05 01:08 | 42.88019 | -85.52669 | 798 ft | 20 kts | 82° |
| 2026-05-05 01:09 | 42.88044 | -85.52454 | 796 ft | 24 kts | 78° |
| 2026-05-05 01:09 | 42.88067 | -85.52234 | 794 ft | 23 kts | 82° |
| 2026-05-05 01:09 | 42.88089 | -85.52027 | 795 ft | 21 kts | 78° |
| 2026-05-05 01:09 | 42.88114 | -85.51834 | 792 ft | 21 kts | 80° |
| 2026-05-05 01:10 | 42.88135 | -85.51644 | 794 ft | 19 kts | 81° |
| 2026-05-05 01:10 | 42.88154 | -85.51465 | 795 ft | 22 kts | 82° |
| 2026-05-05 01:10 | 42.88180 | -85.51228 | 793 ft | 27 kts | 82° |
| 2026-05-05 01:10 | 42.88207 | -85.50986 | 793 ft | 25 kts | 80° |
| 2026-05-05 01:11 | 42.88235 | -85.50748 | 793 ft | 25 kts | 81° |
| 2026-05-05 01:11 | 42.88209 | -85.50586 | 794 ft | 15 kts | 174° |
| 2026-05-05 01:11 | 42.88097 | -85.50557 | 796 ft | 17 kts | 170° |
| 2026-05-05 01:11 | 42.88066 | -85.50626 | 796 ft | 17 kts | 266° |
| 2026-05-05 01:12 | 42.87997 | -85.51252 | 796 ft | 116 kts | 261° |
| 2026-05-05 01:12 | 42.87882 | -85.52512 | 1037 ft | 145 kts | 258° |
| 2026-05-05 01:12 | 42.87679 | -85.53927 | 1545 ft | 159 kts | 243° |
| 2026-05-05 01:12 | 42.86845 | -85.55009 | 1995 ft | 177 kts | 207° |
| 2026-05-05 01:13 | 42.85566 | -85.55154 | 2800 ft | 199 kts | 178° |
| 2026-05-05 01:13 | 42.84272 | -85.54328 | 3777 ft | 213 kts | 154° |
| 2026-05-05 01:13 | 42.83210 | -85.52695 | 4332 ft | 251 kts | 131° |
| 2026-05-05 01:13 | 42.82462 | -85.50336 | 4650 ft | 292 kts | 111° |
| 2026-05-05 01:14 | 42.82272 | -85.47456 | 5249 ft | 308 kts | 90° |
| 2026-05-05 01:14 | 42.82458 | -85.44717 | 6679 ft | 293 kts | 84° |
| 2026-05-05 01:14 | 42.82707 | -85.41845 | 7126 ft | 317 kts | 84° |
| 2026-05-05 01:14 | 42.82956 | -85.38860 | 8166 ft | 315 kts | 84° |
| 2026-05-05 01:15 | 42.83181 | -85.35877 | 9167 ft | 320 kts | 84° |
| 2026-05-05 01:15 | 42.83412 | -85.32829 | 9986 ft | 326 kts | 83° |
| 2026-05-05 01:15 | 42.83656 | -85.29696 | 10463 ft | 344 kts | 83° |
| 2026-05-05 01:15 | 42.83920 | -85.26331 | 10573 ft | 371 kts | 83° |
| 2026-05-05 01:16 | 42.84196 | -85.22720 | 10753 ft | 392 kts | 83° |
| 2026-05-05 01:16 | 42.84474 | -85.19032 | 11546 ft | 392 kts | 83° |
| 2026-05-05 01:16 | 42.84753 | -85.15362 | 12206 ft | 396 kts | 83° |
| 2026-05-05 01:16 | 42.85019 | -85.11881 | 12814 ft | 400 kts | 83° |
| 2026-05-05 01:17 | 42.85315 | -85.08094 | 13466 ft | 404 kts | 82° |
| 2026-05-05 01:17 | 42.85853 | -85.04368 | 13966 ft | 408 kts | 76° |
| 2026-05-05 01:17 | 42.86480 | -85.00587 | 14553 ft | 412 kts | 76° |
| 2026-05-05 01:17 | 42.87092 | -84.96750 | 15024 ft | 419 kts | 77° |
| 2026-05-05 01:18 | 42.87699 | -84.92768 | 15032 ft | 439 kts | 77° |
| 2026-05-05 01:18 | 42.88345 | -84.88620 | 15042 ft | 455 kts | 77° |
| 2026-05-05 01:18 | 42.89031 | -84.84350 | 14984 ft | 468 kts | 77° |
| 2026-05-05 01:18 | 42.89712 | -84.80061 | 14945 ft | 459 kts | 77° |
| 2026-05-05 01:19 | 42.90379 | -84.75757 | 14948 ft | 466 kts | 77° |
| 2026-05-05 01:19 | 42.91052 | -84.71421 | 14947 ft | 468 kts | 77° |
| 2026-05-05 01:19 | 42.91703 | -84.67263 | 14939 ft | 437 kts | 77° |
| 2026-05-05 01:19 | 42.92309 | -84.63369 | 14924 ft | 403 kts | 77° |
| 2026-05-05 01:20 | 42.92874 | -84.59726 | 14924 ft | 387 kts | 77° |
| 2026-05-05 01:20 | 42.93437 | -84.56111 | 14924 ft | 390 kts | 77° |
| 2026-05-05 01:20 | 42.93980 | -84.52479 | 14922 ft | 392 kts | 79° |
| 2026-05-05 01:20 | 42.93962 | -84.48772 | 14878 ft | 390 kts | 100° |
| 2026-05-05 01:21 | 42.93124 | -84.45273 | 14912 ft | 387 kts | 120° |
| 2026-05-05 01:21 | 42.91723 | -84.42231 | 14958 ft | 384 kts | 128° |
| 2026-05-05 01:21 | 42.90213 | -84.39230 | 14956 ft | 384 kts | 128° |
| 2026-05-05 01:21 | 42.88707 | -84.36220 | 14942 ft | 384 kts | 128° |
| 2026-05-05 01:22 | 42.87219 | -84.33194 | 14941 ft | 384 kts | 128° |
| 2026-05-05 01:22 | 42.85732 | -84.30177 | 14939 ft | 384 kts | 128° |
| 2026-05-05 01:22 | 42.84233 | -84.27168 | 14939 ft | 383 kts | 128° |
| 2026-05-05 01:22 | 42.82736 | -84.24166 | 14938 ft | 383 kts | 128° |
| 2026-05-05 01:23 | 42.81241 | -84.21157 | 14930 ft | 383 kts | 128° |
| 2026-05-05 01:23 | 42.79745 | -84.18149 | 14733 ft | 383 kts | 128° |
| 2026-05-05 01:23 | 42.78253 | -84.15156 | 14429 ft | 381 kts | 128° |
| 2026-05-05 01:23 | 42.76773 | -84.12190 | 14083 ft | 378 kts | 128° |
| 2026-05-05 01:24 | 42.75300 | -84.09242 | 13736 ft | 375 kts | 128° |
| 2026-05-05 01:24 | 42.73859 | -84.06350 | 13391 ft | 373 kts | 127° |
| 2026-05-05 01:24 | 42.72407 | -84.03436 | 13018 ft | 371 kts | 127° |
| 2026-05-05 01:24 | 42.70966 | -84.00550 | 12690 ft | 369 kts | 127° |
| 2026-05-05 01:25 | 42.69527 | -83.97671 | 12345 ft | 367 kts | 127° |
| 2026-05-05 01:25 | 42.68402 | -83.94560 | 11918 ft | 370 kts | 108° |
| 2026-05-05 01:25 | 42.67782 | -83.91183 | 11662 ft | 368 kts | 104° |
| 2026-05-05 01:25 | 42.67181 | -83.87806 | 11340 ft | 367 kts | 105° |
| 2026-05-05 01:26 | 42.66540 | -83.84458 | 11006 ft | 366 kts | 106° |
| 2026-05-05 01:26 | 42.65893 | -83.81127 | 10661 ft | 363 kts | 106° |
| 2026-05-05 01:26 | 42.65273 | -83.77830 | 10326 ft | 353 kts | 105° |
| 2026-05-05 01:26 | 42.64693 | -83.74712 | 10000 ft | 338 kts | 105° |
| 2026-05-05 01:27 | 42.64117 | -83.71680 | 9686 ft | 327 kts | 106° |
| 2026-05-05 01:27 | 42.63549 | -83.68718 | 9381 ft | 322 kts | 106° |
| 2026-05-05 01:27 | 42.62993 | -83.65799 | 9071 ft | 314 kts | 106° |
| 2026-05-05 01:27 | 42.62428 | -83.62995 | 8770 ft | 301 kts | 110° |
| 2026-05-05 01:28 | 42.61819 | -83.60315 | 8496 ft | 295 kts | 108° |
| 2026-05-05 01:28 | 42.61300 | -83.57638 | 8242 ft | 292 kts | 107° |
| 2026-05-05 01:28 | 42.60824 | -83.55161 | 8003 ft | 292 kts | 107° |
| 2026-05-05 01:28 | 42.60310 | -83.52490 | 7748 ft | 292 kts | 107° |
| 2026-05-05 01:29 | 42.59801 | -83.49819 | 7497 ft | 292 kts | 107° |
| 2026-05-05 01:29 | 42.59309 | -83.47208 | 7204 ft | 287 kts | 107° |
| 2026-05-05 01:29 | 42.58822 | -83.44597 | 6907 ft | 283 kts | 107° |
| 2026-05-05 01:29 | 42.58349 | -83.42022 | 6613 ft | 280 kts | 107° |
| 2026-05-05 01:30 | 42.57880 | -83.39457 | 6315 ft | 280 kts | 107° |
| 2026-05-05 01:30 | 42.57410 | -83.36898 | 6024 ft | 279 kts | 107° |
| 2026-05-05 01:30 | 42.56948 | -83.34368 | 5969 ft | 274 kts | 107° |
| 2026-05-05 01:30 | 42.56492 | -83.31853 | 5982 ft | 275 kts | 106° |
| 2026-05-05 01:31 | 42.56312 | -83.29263 | 5875 ft | 280 kts | 91° |
| 2026-05-05 01:31 | 42.56425 | -83.26577 | 5630 ft | 290 kts | 87° |
| 2026-05-05 01:31 | 42.56587 | -83.23855 | 5396 ft | 286 kts | 86° |
| 2026-05-05 01:31 | 42.56751 | -83.21211 | 5144 ft | 278 kts | 86° |
| 2026-05-05 01:32 | 42.56912 | -83.18646 | 4888 ft | 274 kts | 86° |
| 2026-05-05 01:32 | 42.57080 | -83.16107 | 4632 ft | 267 kts | 87° |
| 2026-05-05 01:32 | 42.57257 | -83.13623 | 4356 ft | 263 kts | 86° |
| 2026-05-05 01:32 | 42.57440 | -83.11170 | 4091 ft | 260 kts | 86° |
| 2026-05-05 01:33 | 42.57636 | -83.08742 | 3982 ft | 257 kts | 87° |
| 2026-05-05 01:33 | 42.57833 | -83.06331 | 3972 ft | 256 kts | 89° |
| 2026-05-05 01:33 | 42.57444 | -83.04079 | 3881 ft | 238 kts | 131° |
| 2026-05-05 01:33 | 42.56254 | -83.02822 | 3866 ft | 205 kts | 174° |
| 2026-05-05 01:34 | 42.54979 | -83.03032 | 3911 ft | 185 kts | 213° |
| 2026-05-05 01:34 | 42.53805 | -83.03813 | 4034 ft | 194 kts | 210° |
| 2026-05-05 01:34 | 42.52727 | -83.04915 | 4002 ft | 192 kts | 230° |
| 2026-05-05 01:34 | 42.51868 | -83.06255 | 3996 ft | 186 kts | 232° |
| 2026-05-05 01:35 | 42.51039 | -83.07590 | 3995 ft | 184 kts | 232° |
| 2026-05-05 01:35 | 42.50207 | -83.08920 | 3983 ft | 186 kts | 232° |
| 2026-05-05 01:35 | 42.49359 | -83.10259 | 3986 ft | 190 kts | 232° |
| 2026-05-05 01:35 | 42.48498 | -83.11629 | 3985 ft | 191 kts | 232° |
| 2026-05-05 01:36 | 42.47642 | -83.12999 | 3983 ft | 190 kts | 232° |
| 2026-05-05 01:36 | 42.46790 | -83.14366 | 3988 ft | 190 kts | 232° |
| 2026-05-05 01:36 | 42.45936 | -83.15737 | 3980 ft | 191 kts | 232° |
| 2026-05-05 01:36 | 42.45045 | -83.17038 | 3978 ft | 192 kts | 227° |
| 2026-05-05 01:37 | 42.44077 | -83.18279 | 3966 ft | 192 kts | 225° |
| 2026-05-05 01:37 | 42.42883 | -83.19145 | 3978 ft | 196 kts | 210° |
| 2026-05-05 01:37 | 42.41641 | -83.19895 | 3987 ft | 196 kts | 211° |
| 2026-05-05 01:37 | 42.40406 | -83.20682 | 3983 ft | 197 kts | 212° |
| 2026-05-05 01:38 | 42.39160 | -83.21467 | 3982 ft | 198 kts | 211° |
| 2026-05-05 01:38 | 42.37839 | -83.22041 | 3968 ft | 201 kts | 199° |
| 2026-05-05 01:38 | 42.36528 | -83.22546 | 3780 ft | 195 kts | 210° |
| 2026-05-05 01:38 | 42.35347 | -83.23396 | 3557 ft | 190 kts | 215° |
| 2026-05-05 01:39 | 42.34204 | -83.24254 | 3321 ft | 184 kts | 215° |
| 2026-05-05 01:39 | 42.33107 | -83.25069 | 3080 ft | 174 kts | 215° |
| 2026-05-05 01:39 | 42.32096 | -83.25819 | 2899 ft | 159 kts | 215° |
| 2026-05-05 01:39 | 42.31241 | -83.26447 | 2911 ft | 125 kts | 217° |
| 2026-05-05 01:40 | 42.30536 | -83.26987 | 2718 ft | 116 kts | 218° |
| 2026-05-05 01:40 | 42.29842 | -83.27505 | 2553 ft | 108 kts | 217° |
| 2026-05-05 01:40 | 42.29178 | -83.28009 | 2220 ft | 115 kts | 216° |
| 2026-05-05 01:40 | 42.28495 | -83.28522 | 2045 ft | 105 kts | 215° |
| 2026-05-05 01:41 | 42.27869 | -83.28986 | 1964 ft | 102 kts | 215° |
| 2026-05-05 01:41 | 42.27239 | -83.29457 | 1838 ft | 107 kts | 214° |
| 2026-05-05 01:41 | 42.26583 | -83.29949 | 1698 ft | 110 kts | 213° |
| 2026-05-05 01:41 | 42.25911 | -83.30452 | 1555 ft | 116 kts | 212° |
| 2026-05-05 01:42 | 42.25197 | -83.30991 | 1397 ft | 118 kts | 211° |
| 2026-05-05 01:42 | 42.24492 | -83.31518 | 1246 ft | 116 kts | 210° |
| 2026-05-05 01:42 | 42.23766 | -83.32073 | 1078 ft | 123 kts | 210° |
| 2026-05-05 01:42 | 42.23017 | -83.32631 | 985 ft | 125 kts | 208° |
| 2026-05-05 01:43 | 42.22233 | -83.33212 | 748 ft | 131 kts | 207° |
| 2026-05-05 01:43 | 42.21459 | -83.33776 | 647 ft | 113 kts | 208° |
| 2026-05-05 01:43 | 42.21055 | -83.34077 | 648 ft | 33 kts | 208° |
| 2026-05-05 01:43 | 42.20968 | -83.34185 | 646 ft | 7 kts | 307° |
| 2026-05-05 01:44 | 42.21016 | -83.34182 | 647 ft | 10 kts | 2° |
| 2026-05-05 01:44 | 42.21105 | -83.34203 | 646 ft | 4 kts | 346° |
| 2026-05-05 01:44 | 42.21127 | -83.34211 | 646 ft | 8 kts | 345° |
| 2026-05-05 01:45 | 42.21231 | -83.34204 | 646 ft | 23 kts | 31° |
| 2026-05-05 01:45 | 42.21374 | -83.34099 | 646 ft | 23 kts | 28° |
| 2026-05-05 01:45 | 42.21509 | -83.34001 | 646 ft | 21 kts | 28° |
| 2026-05-05 01:45 | 42.21635 | -83.33909 | 645 ft | 20 kts | 29° |
| 2026-05-05 01:46 | 42.21755 | -83.33818 | 643 ft | 20 kts | 28° |
| 2026-05-05 01:46 | 42.21852 | -83.33771 | 645 ft | 7 kts | 303° |
| 2026-05-05 01:46 | 42.21849 | -83.33829 | 645 ft | 7 kts | 266° |
| 2026-05-05 01:46 | 42.21846 | -83.33886 | 645 ft | 5 kts | 267° |
| 2026-05-05 01:47 | 42.21845 | -83.33944 | 645 ft | 9 kts | 270° |
| 2026-05-05 01:47 | 42.21845 | -83.34043 | 645 ft | 10 kts | 269° |
| 2026-05-05 01:47 | 42.21844 | -83.34133 | 645 ft | 9 kts | 269° |
| 2026-05-05 01:47 | 42.21842 | -83.34264 | 645 ft | 20 kts | 268° |
| 2026-05-05 01:48 | 42.21837 | -83.34426 | 650 ft | 16 kts | 264° |
| 2026-05-05 01:48 | 42.21876 | -83.34499 | 646 ft | 10 kts | 46° |
| 2026-05-05 01:48 | 42.21980 | -83.34413 | 646 ft | 23 kts | 31° |
| 2026-05-05 01:48 | 42.22112 | -83.34314 | 646 ft | 21 kts | 31° |
| 2026-05-05 01:49 | 42.22253 | -83.34209 | 646 ft | 24 kts | 28° |
| 2026-05-05 01:49 | 42.22402 | -83.34098 | 646 ft | 25 kts | 28° |
| 2026-05-05 01:49 | 42.22547 | -83.33990 | 646 ft | 23 kts | 30° |
| 2026-05-05 01:49 | 42.22682 | -83.33890 | 646 ft | 21 kts | 28° |
| 2026-05-05 01:50 | 42.22769 | -83.33946 | 645 ft | 15 kts | 297° |
| 2026-05-05 01:50 | 42.22811 | -83.34076 | 645 ft | 12 kts | 264° |
| 2026-05-05 01:50 | 42.22846 | -83.34100 | 645 ft | 8 kts | 48° |
| 2026-05-05 01:50 | 42.22847 | -83.34097 | 645 ft | 0 kts | 47° |